Zim Texas — V7VE3 — position and weather

sailwx.info

Track history (hours):
 
Tides and Currents Weather Stations Pressure Air Temp Water Temp Dewpoint Dewpoint Depression Visibility Wind Speed Wind Dir Waves Ship Positions

Zim Texas

Last reported at 2018-Apr-26 00:51 UTC. Time now 2018-Apr-26 01:22 UTC.
Position N 32°51' E 034°60'.

Length 261 m; draft 11.9 m.

Type: Ship (hazmat cat A). MMSI: 538004099.

Date/timePositionNaut miles runAvg speedWind from/ knotsBaromVisibWave heightAir tempDewpointWater temp
2018-Apr-26 00:51N 32°51' E 034°60'2 7.1
2018-Apr-26 00:30N 32°52' E 034°57'4 7.9
2018-Apr-26 00:00N 32°53' E 034°52'713.5
2018-Apr-25 23:30N 32°47' E 034°49'1019.5
2018-Apr-25 23:01N 32°38' E 034°45'1019.2
2018-Apr-25 22:30N 32°29' E 034°42'919.0
2018-Apr-25 22:00N 32°20' E 034°38'919.0
2018-Apr-25 21:30N 32°11' E 034°35'19 0.5
2018-Apr-24 11:08N 31°52' E 034°37'1 3.6
2018-Apr-24 11:00N 31°52' E 034°36'1415.4
2018-Apr-24 10:04N 31°56' E 034°20'118.6
2018-Apr-24 10:00N 31°57' E 034°19'917.7
2018-Apr-24 09:29N 32°02' E 034°10'817.9
2018-Apr-24 09:00N 32°10' E 034°06'917.8
2018-Apr-24 08:30N 32°19' E 034°07'1917.7
2018-Apr-24 07:24N 32°38' E 034°08'816.2
2018-Apr-24 06:55N 32°46' E 034°12'717.5
2018-Apr-24 06:31N 32°53' E 034°11'1217.7
2018-Apr-24 05:51N 33°04' E 034°11'617.7
2018-Apr-24 05:30N 33°11' E 034°11'1417.7
2018-Apr-24 04:42N 33°25' E 034°11'318.0
2018-Apr-24 04:31N 33°28' E 034°11'917.9
2018-Apr-24 04:01N 33°37' E 034°11'917.6
2018-Apr-24 03:31N 33°46' E 034°10'5217.4
2018-Apr-24 00:30N 34°38' E 034°20'3017.6
2018-Apr-23 22:46N 35°07' E 034°30'  
2018-Apr-20 14:31N 36°26' E 015°06'419.2
2018-Apr-20 14:19N 36°27' E 015°01'618.6
2018-Apr-20 14:00N 36°27' E 014°54'1220.3
2018-Apr-20 13:25N 36°29' E 014°39'716.4
2018-Apr-20 13:00N 36°31' E 014°31'1019.0
2018-Apr-20 12:28N 36°35' E 014°20'818.2
2018-Apr-20 12:01N 36°40' E 014°11'918.0
2018-Apr-20 11:29N 36°44' E 014°01'918.1
2018-Apr-20 11:00N 36°48' E 013°51'918.0
2018-Apr-20 10:30N 36°53' E 013°41'25318.1
2018-Apr-19 20:32N 38°33' E 008°48'118.3
2018-Apr-19 20:30N 38°33' E 008°47'29018.1
2018-Apr-19 04:31N 40°30' E 003°04'6417.3
2018-Apr-19 00:49N 40°54' E 001°45'517.1
2018-Apr-19 00:30N 40°56' E 001°39'917.8
2018-Apr-18 23:59N 40°59' E 001°27'121 5.1
2018-Apr-18 00:19N 39°27' W 000°14'3 8.1
2018-Apr-17 23:55N 39°26' W 000°19'1 1.9
2018-Apr-17 23:30N 39°27' W 000°19'0 0.0
2018-Apr-17 22:58N 39°27' W 000°19'0 0.0
2018-Apr-17 22:28N 39°27' W 000°19'0 0.0
2018-Apr-17 21:58N 39°27' W 000°19'0 0.0
2018-Apr-17 21:25N 39°27' W 000°19'0 0.0
2018-Apr-17 20:58N 39°27' W 000°19'0 0.0
2018-Apr-17 20:28N 39°27' W 000°19'0 0.0
2018-Apr-17 19:58N 39°27' W 000°19'0 0.0
2018-Apr-17 19:28N 39°27' W 000°19'0 0.0
2018-Apr-17 18:40N 39°27' W 000°19'0 0.1
2018-Apr-17 18:25N 39°27' W 000°19'0 0.0
2018-Apr-17 17:55N 39°27' W 000°19'0 0.0
2018-Apr-17 17:19N 39°27' W 000°19'0 0.0
2018-Apr-17 16:49N 39°27' W 000°19'0 0.0
2018-Apr-17 16:28N 39°27' W 000°19'0 0.0
2018-Apr-17 15:58N 39°27' W 000°19'0 0.0
2018-Apr-17 15:25N 39°27' W 000°19'0 0.0
2018-Apr-17 14:58N 39°27' W 000°19'0 0.0
2018-Apr-17 14:28N 39°27' W 000°19'0 0.0
2018-Apr-17 13:55N 39°27' W 000°19'0 0.0
2018-Apr-17 13:28N 39°27' W 000°19'0 0.0
2018-Apr-17 12:43N 39°27' W 000°19'0 0.0
2018-Apr-17 12:19N 39°27' W 000°19'0 0.0
2018-Apr-17 11:58N 39°27' W 000°19'0 0.0
2018-Apr-17 11:28N 39°27' W 000°19'0 0.0
2018-Apr-17 10:58N 39°27' W 000°19'0 0.0
2018-Apr-17 10:28N 39°27' W 000°19'0 0.0
2018-Apr-17 09:58N 39°27' W 000°19'0 0.0
2018-Apr-17 09:28N 39°27' W 000°19'0 0.0
2018-Apr-17 08:58N 39°27' W 000°19'0 0.0
2018-Apr-17 08:28N 39°27' W 000°19'0 0.0
2018-Apr-17 07:58N 39°27' W 000°19'0 0.0
2018-Apr-17 07:25N 39°27' W 000°19'0 0.0
2018-Apr-17 06:55N 39°27' W 000°19'0 0.0
2018-Apr-17 06:28N 39°27' W 000°19'0 0.0
2018-Apr-17 05:58N 39°27' W 000°19'0 0.0
2018-Apr-17 05:28N 39°27' W 000°19'0 0.0
2018-Apr-17 04:58N 39°27' W 000°19'0 0.0
2018-Apr-17 04:28N 39°27' W 000°19'0 0.0
2018-Apr-17 03:58N 39°27' W 000°19'0 0.0
2018-Apr-17 03:28N 39°27' W 000°19'0 0.1
2018-Apr-17 02:58N 39°27' W 000°19'0 0.0
2018-Apr-17 02:28N 39°27' W 000°19'0 0.0
2018-Apr-17 01:52N 39°27' W 000°19'0 0.0
2018-Apr-17 01:28N 39°27' W 000°19'0 0.0
2018-Apr-17 00:58N 39°27' W 000°19'0 0.0
2018-Apr-17 00:28N 39°27' W 000°19'0 0.0
2018-Apr-16 23:58N 39°27' W 000°19'0 0.0
2018-Apr-16 23:28N 39°27' W 000°19'0 0.0
2018-Apr-16 22:58N 39°27' W 000°19'0 0.0
2018-Apr-16 22:28N 39°27' W 000°19'0 0.0
2018-Apr-16 21:58N 39°27' W 000°19'0 0.0
2018-Apr-16 21:28N 39°27' W 000°19'0 0.0
2018-Apr-16 20:55N 39°27' W 000°19'0 0.0
2018-Apr-16 20:28N 39°27' W 000°19'0 0.0
2018-Apr-16 19:58N 39°27' W 000°19'0 0.0
2018-Apr-16 18:13N 39°27' W 000°19'0 0.0
2018-Apr-16 17:58N 39°27' W 000°19'0 0.0
2018-Apr-16 17:28N 39°27' W 000°19'0 0.0
2018-Apr-16 16:58N 39°27' W 000°19'0 0.1
2018-Apr-16 16:30N 39°27' W 000°19'3 5.7
2018-Apr-16 16:00N 39°25' W 000°16'612.8
2018-Apr-16 15:30N 39°23' W 000°09'9612.3
2018-Apr-16 07:42N 37°47' W 000°19'315.2
2018-Apr-16 07:30N 37°44' W 000°21'715.1
2018-Apr-16 07:00N 37°38' W 000°26'714.5
2018-Apr-16 06:30N 37°32' W 000°32'815.0
2018-Apr-16 06:00N 37°27' W 000°39'715.2
2018-Apr-16 05:30N 37°22' W 000°46'815.0
2018-Apr-16 04:59N 37°17' W 000°53'714.8
2018-Apr-16 04:30N 37°12' W 000°60'714.8
2018-Apr-16 04:00N 37°07' W 001°07'1215.0
2018-Apr-16 03:14N 36°60' W 001°18'  
Track history (hours):
 
Tides and Currents Weather Stations Pressure Air Temp Water Temp Dewpoint Dewpoint Depression Visibility Wind Speed Wind Dir Waves Ship Positions

Zim Texas

Last reported at 2018-Apr-26 00:51 UTC. Time now 2018-Apr-26 01:22 UTC.
Position N 32°51' E 034°60'.

Length 261 m; draft 11.9 m.

Type: Ship (hazmat cat A). MMSI: 538004099.

Date/timePositionNaut miles runAvg speedWind from/ knotsBaromVisibWave heightAir tempDewpointWater temp
2018-Apr-26 00:51N 32°51' E 034°60'2 7.1
2018-Apr-26 00:30N 32°52' E 034°57'4 7.9
2018-Apr-26 00:00N 32°53' E 034°52'713.5
2018-Apr-25 23:30N 32°47' E 034°49'1019.5
2018-Apr-25 23:01N 32°38' E 034°45'1019.2
2018-Apr-25 22:30N 32°29' E 034°42'919.0
2018-Apr-25 22:00N 32°20' E 034°38'919.0
2018-Apr-25 21:30N 32°11' E 034°35'19 0.5
2018-Apr-24 11:08N 31°52' E 034°37'1 3.6
2018-Apr-24 11:00N 31°52' E 034°36'1415.4
2018-Apr-24 10:04N 31°56' E 034°20'118.6
2018-Apr-24 10:00N 31°57' E 034°19'917.7
2018-Apr-24 09:29N 32°02' E 034°10'817.9
2018-Apr-24 09:00N 32°10' E 034°06'917.8
2018-Apr-24 08:30N 32°19' E 034°07'1917.7
2018-Apr-24 07:24N 32°38' E 034°08'816.2
2018-Apr-24 06:55N 32°46' E 034°12'717.5
2018-Apr-24 06:31N 32°53' E 034°11'1217.7
2018-Apr-24 05:51N 33°04' E 034°11'617.7
2018-Apr-24 05:30N 33°11' E 034°11'1417.7
2018-Apr-24 04:42N 33°25' E 034°11'318.0
2018-Apr-24 04:31N 33°28' E 034°11'917.9
2018-Apr-24 04:01N 33°37' E 034°11'917.6
2018-Apr-24 03:31N 33°46' E 034°10'5217.4
2018-Apr-24 00:30N 34°38' E 034°20'3017.6
2018-Apr-23 22:46N 35°07' E 034°30'  
2018-Apr-20 14:31N 36°26' E 015°06'419.2
2018-Apr-20 14:19N 36°27' E 015°01'618.6
2018-Apr-20 14:00N 36°27' E 014°54'1220.3
2018-Apr-20 13:25N 36°29' E 014°39'716.4
2018-Apr-20 13:00N 36°31' E 014°31'1019.0
2018-Apr-20 12:28N 36°35' E 014°20'818.2
2018-Apr-20 12:01N 36°40' E 014°11'918.0
2018-Apr-20 11:29N 36°44' E 014°01'918.1
2018-Apr-20 11:00N 36°48' E 013°51'918.0
2018-Apr-20 10:30N 36°53' E 013°41'25318.1
2018-Apr-19 20:32N 38°33' E 008°48'118.3
2018-Apr-19 20:30N 38°33' E 008°47'29018.1
2018-Apr-19 04:31N 40°30' E 003°04'6417.3
2018-Apr-19 00:49N 40°54' E 001°45'517.1
2018-Apr-19 00:30N 40°56' E 001°39'917.8
2018-Apr-18 23:59N 40°59' E 001°27'121 5.1
2018-Apr-18 00:19N 39°27' W 000°14'3 8.1
2018-Apr-17 23:55N 39°26' W 000°19'1 1.9
2018-Apr-17 23:30N 39°27' W 000°19'0 0.0
2018-Apr-17 22:58N 39°27' W 000°19'0 0.0
2018-Apr-17 22:28N 39°27' W 000°19'0 0.0
2018-Apr-17 21:58N 39°27' W 000°19'0 0.0
2018-Apr-17 21:25N 39°27' W 000°19'0 0.0
2018-Apr-17 20:58N 39°27' W 000°19'0 0.0
2018-Apr-17 20:28N 39°27' W 000°19'0 0.0
2018-Apr-17 19:58N 39°27' W 000°19'0 0.0
2018-Apr-17 19:28N 39°27' W 000°19'0 0.0
2018-Apr-17 18:40N 39°27' W 000°19'0 0.1
2018-Apr-17 18:25N 39°27' W 000°19'0 0.0
2018-Apr-17 17:55N 39°27' W 000°19'0 0.0
2018-Apr-17 17:19N 39°27' W 000°19'0 0.0
2018-Apr-17 16:49N 39°27' W 000°19'0 0.0
2018-Apr-17 16:28N 39°27' W 000°19'0 0.0
2018-Apr-17 15:58N 39°27' W 000°19'0 0.0
2018-Apr-17 15:25N 39°27' W 000°19'0 0.0
2018-Apr-17 14:58N 39°27' W 000°19'0 0.0
2018-Apr-17 14:28N 39°27' W 000°19'0 0.0
2018-Apr-17 13:55N 39°27' W 000°19'0 0.0
2018-Apr-17 13:28N 39°27' W 000°19'0 0.0
2018-Apr-17 12:43N 39°27' W 000°19'0 0.0
2018-Apr-17 12:19N 39°27' W 000°19'0 0.0
2018-Apr-17 11:58N 39°27' W 000°19'0 0.0
2018-Apr-17 11:28N 39°27' W 000°19'0 0.0
2018-Apr-17 10:58N 39°27' W 000°19'0 0.0
2018-Apr-17 10:28N 39°27' W 000°19'0 0.0
2018-Apr-17 09:58N 39°27' W 000°19'0 0.0
2018-Apr-17 09:28N 39°27' W 000°19'0 0.0
2018-Apr-17 08:58N 39°27' W 000°19'0 0.0
2018-Apr-17 08:28N 39°27' W 000°19'0 0.0
2018-Apr-17 07:58N 39°27' W 000°19'0 0.0
2018-Apr-17 07:25N 39°27' W 000°19'0 0.0
2018-Apr-17 06:55N 39°27' W 000°19'0 0.0
2018-Apr-17 06:28N 39°27' W 000°19'0 0.0
2018-Apr-17 05:58N 39°27' W 000°19'0 0.0
2018-Apr-17 05:28N 39°27' W 000°19'0 0.0
2018-Apr-17 04:58N 39°27' W 000°19'0 0.0
2018-Apr-17 04:28N 39°27' W 000°19'0 0.0
2018-Apr-17 03:58N 39°27' W 000°19'0 0.0
2018-Apr-17 03:28N 39°27' W 000°19'0 0.1
2018-Apr-17 02:58N 39°27' W 000°19'0 0.0
2018-Apr-17 02:28N 39°27' W 000°19'0 0.0
2018-Apr-17 01:52N 39°27' W 000°19'0 0.0
2018-Apr-17 01:28N 39°27' W 000°19'0 0.0
2018-Apr-17 00:58N 39°27' W 000°19'0 0.0
2018-Apr-17 00:28N 39°27' W 000°19'0 0.0
2018-Apr-16 23:58N 39°27' W 000°19'0 0.0
2018-Apr-16 23:28N 39°27' W 000°19'0 0.0
2018-Apr-16 22:58N 39°27' W 000°19'0 0.0
2018-Apr-16 22:28N 39°27' W 000°19'0 0.0
2018-Apr-16 21:58N 39°27' W 000°19'0 0.0
2018-Apr-16 21:28N 39°27' W 000°19'0 0.0
2018-Apr-16 20:55N 39°27' W 000°19'0 0.0
2018-Apr-16 20:28N 39°27' W 000°19'0 0.0
2018-Apr-16 19:58N 39°27' W 000°19'0 0.0
2018-Apr-16 18:13N 39°27' W 000°19'0 0.0
2018-Apr-16 17:58N 39°27' W 000°19'0 0.0
2018-Apr-16 17:28N 39°27' W 000°19'0 0.0
2018-Apr-16 16:58N 39°27' W 000°19'0 0.1
2018-Apr-16 16:30N 39°27' W 000°19'3 5.7
2018-Apr-16 16:00N 39°25' W 000°16'612.8
2018-Apr-16 15:30N 39°23' W 000°09'9612.3
2018-Apr-16 07:42N 37°47' W 000°19'315.2
2018-Apr-16 07:30N 37°44' W 000°21'715.1
2018-Apr-16 07:00N 37°38' W 000°26'714.5
2018-Apr-16 06:30N 37°32' W 000°32'815.0
2018-Apr-16 06:00N 37°27' W 000°39'715.2
2018-Apr-16 05:30N 37°22' W 000°46'815.0
2018-Apr-16 04:59N 37°17' W 000°53'714.8
2018-Apr-16 04:30N 37°12' W 000°60'714.8
2018-Apr-16 04:00N 37°07' W 001°07'1215.0
2018-Apr-16 03:14N 36°60' W 001°18'  

Dump ship's entire track history